Time;durP1;ratioP1;P1;durP2;ratioP2;P2;SDS_P1;SDS_P2;PMS_P1;PMS_P2;Temp;Humidity;BMP_temperature;BMP_pressure;BME280_temperature;BME280_humidity;BME280_pressure;Samples;Min_cycle;Max_cycle;Signal;HPM_P1;HPM_P2
2022/10/26 00:01:25;;;;;;;6.28;4.15;;;;;;;8.56;96.80;101498.63;6219888;23;20096;-77
2022/10/26 00:03:54;;;;;;;4.72;4.03;;;;;;;8.55;96.71;101496.38;6213530;23;20080;-77
2022/10/26 00:06:29;;;;;;;4.30;3.90;;;;;;;8.55;96.74;101493.72;6220187;23;20080;-77
2022/10/26 00:08:56;;;;;;;4.70;4.07;;;;;;;8.55;96.84;101491.09;6219490;23;20020;-77
2022/10/26 00:11:22;;;;;;;6.45;3.92;;;;;;;8.52;97.03;101490.00;6220149;23;20431;-77
2022/10/26 00:13:49;;;;;;;6.50;3.45;;;;;;;8.51;97.07;101487.75;6219714;23;20021;-77
2022/10/26 00:16:22;;;;;;;6.07;3.88;;;;;;;8.49;97.30;101485.50;6220065;23;20084;-77
2022/10/26 00:18:49;;;;;;;3.75;3.42;;;;;;;8.49;97.35;101485.50;6219772;23;20096;-77
2022/10/26 00:21:16;;;;;;;3.85;3.58;;;;;;;8.50;97.44;101483.59;6220109;23;20100;-77
2022/10/26 00:23:43;;;;;;;4.25;3.60;;;;;;;8.51;97.44;101479.78;6219564;23;20049;-77
2022/10/26 00:26:10;;;;;;;3.47;3.28;;;;;;;8.54;97.57;101481.63;6193490;23;20088;-78
2022/10/26 00:28:36;;;;;;;5.72;3.60;;;;;;;8.53;97.63;101472.16;6193078;23;20486;-77
2022/10/26 00:31:10;;;;;;;10.70;3.78;;;;;;;8.52;97.98;101463.44;6192464;23;20029;-77
2022/10/26 00:33:37;;;;;;;3.80;3.50;;;;;;;8.53;98.13;101470.25;6220108;23;20037;-77
2022/10/26 00:36:03;;;;;;;3.55;3.25;;;;;;;8.55;97.61;101475.16;6219501;23;20067;-77
2022/10/26 00:38:30;;;;;;;4.20;3.72;;;;;;;8.54;98.05;101466.44;6219486;23;20024;-77
2022/10/26 00:40:56;;;;;;;5.75;4.03;;;;;;;8.53;98.34;101464.94;6219576;23;20020;-77
2022/10/26 00:43:27;;;;;;;8.50;3.67;;;;;;;8.54;98.43;101455.84;6220443;23;20544;-77
2022/10/26 00:45:58;;;;;;;4.35;4.05;;;;;;;8.54;98.20;101461.13;6219251;23;20020;-77
2022/10/26 00:48:30;;;;;;;5.20;3.78;;;;;;;8.55;98.32;101459.22;6220092;23;20080;-77
2022/10/26 00:51:01;;;;;;;4.55;4.15;;;;;;;8.55;98.71;101465.28;6216956;23;20088;-78
2022/10/26 00:53:29;;;;;;;4.45;4.03;;;;;;;8.55;98.90;101461.88;6218699;23;20045;-77
2022/10/26 00:55:55;;;;;;;4.15;3.85;;;;;;;8.57;98.78;101459.56;6218562;23;20503;-77
2022/10/26 00:58:24;;;;;;;6.65;4.60;;;;;;;8.60;99.18;101456.13;6219447;23;20017;-77
2022/10/26 01:00:52;;;;;;;5.38;4.28;;;;;;;8.60;99.34;101446.25;6219431;23;20047;-77
2022/10/26 01:03:19;;;;;;;11.15;4.00;;;;;;;8.62;99.60;101443.19;6219987;23;20096;-77
2022/10/26 01:05:47;;;;;;;4.97;4.03;;;;;;;8.62;99.76;101441.28;6218916;23;20021;-77
2022/10/26 01:08:15;;;;;;;7.38;4.00;;;;;;;8.65;99.98;101440.47;6192777;23;20027;-77
2022/10/26 01:10:42;;;;;;;4.35;4.05;;;;;;;8.67;99.88;101443.47;6220153;23;20081;-77
2022/10/26 01:13:10;;;;;;;4.90;4.50;;;;;;;8.68;100.00;101437.00;6219466;23;20056;-77
2022/10/26 01:15:41;;;;;;;5.85;4.70;;;;;;;8.72;100.00;101434.28;6219900;23;20478;-77
2022/10/26 01:18:34;;;;;;;6.78;4.35;;;;;;;8.74;100.00;101434.63;6219636;23;20044;-78
2022/10/26 01:21:31;;;;;;;4.22;3.92;;;;;;;8.75;100.00;101428.16;6219275;23;20092;-78
2022/10/26 01:24:18;;;;;;;10.40;4.28;;;;;;;8.78;100.00;101423.94;6219452;23;20359;-78
2022/10/26 01:27:06;;;;;;;5.30;3.78;;;;;;;8.79;100.00;101423.50;6193088;23;20467;-78
2022/10/26 01:29:50;;;;;;;6.47;4.25;;;;;;;8.81;100.00;101417.78;6219980;23;20437;-78
2022/10/26 01:32:46;;;;;;;6.40;4.13;;;;;;;8.81;100.00;101418.53;6219734;23;20017;-80
2022/10/26 01:35:22;;;;;;;9.20;4.65;;;;;;;8.83;100.00;101408.25;6219394;23;20495;-79
2022/10/26 01:38:09;;;;;;;5.82;4.10;;;;;;;8.83;100.00;101410.91;6192598;23;20104;-79
2022/10/26 01:40:43;;;;;;;10.27;4.55;;;;;;;8.84;100.00;101404.44;6219836;23;20100;-79
2022/10/26 01:43:12;;;;;;;7.50;4.53;;;;;;;8.86;100.00;101396.81;6219275;23;20017;-79
2022/10/26 01:45:43;;;;;;;14.73;4.75;;;;;;;8.88;100.00;101399.03;6219301;23;20040;-79
2022/10/26 01:48:13;;;;;;;8.25;4.68;;;;;;;8.91;100.00;101395.56;6219153;23;20088;-79
2022/10/26 01:50:44;;;;;;;9.70;5.03;;;;;;;8.91;100.00;101390.25;6219033;23;20172;-79
2022/10/26 01:53:12;;;;;;;5.35;4.80;;;;;;;8.94;100.00;101392.84;6220495;23;20056;-78
2022/10/26 01:55:49;;;;;;;5.28;4.60;;;;;;;8.97;100.00;101388.63;6220721;23;20096;-78
2022/10/26 01:58:36;;;;;;;8.13;4.65;;;;;;;8.99;100.00;101389.69;6220788;23;20443;-78
2022/10/26 02:01:19;;;;;;;5.75;4.88;;;;;;;9.01;100.00;101390.03;6193735;23;20128;-78
2022/10/26 02:04:02;;;;;;;6.00;5.40;;;;;;;9.04;100.00;101385.81;6220236;23;20028;-78
2022/10/26 02:06:42;;;;;;;6.05;4.75;;;;;;;9.10;100.00;101394.03;6220680;23;20086;-78
2022/10/26 02:09:23;;;;;;;13.18;5.40;;;;;;;9.12;100.00;101399.69;6220402;23;20411;-78
2022/10/26 02:11:52;;;;;;;7.40;4.60;;;;;;;9.14;100.00;101397.38;6220489;23;20092;-78
2022/10/26 02:14:38;;;;;;;7.25;4.72;;;;;;;9.15;100.00;101399.63;6220531;23;20044;-78
2022/10/26 02:17:12;;;;;;;12.77;4.93;;;;;;;9.16;100.00;101389.75;6220521;23;20368;-78
2022/10/26 02:19:50;;;;;;;7.20;4.65;;;;;;;9.19;100.00;101391.56;6220215;23;20044;-78
2022/10/26 02:22:27;;;;;;;5.13;4.65;;;;;;;9.22;100.00;101390.72;6193818;23;20027;-79
2022/10/26 02:24:58;;;;;;;12.48;5.55;;;;;;;9.23;100.00;101389.56;6220251;23;20013;-79
2022/10/26 02:27:30;;;;;;;7.13;5.35;;;;;;;9.26;100.00;101391.38;6220683;23;20021;-78
2022/10/26 02:29:58;;;;;;;;;;;;;;;9.30;100.00;101384.09;6220902;23;20088;-78
2022/10/26 02:32:28;;;;;;;10.02;5.28;;;;;;;9.32;100.00;101382.50;6220140;23;19963;-79
2022/10/26 02:34:58;;;;;;;9.32;5.55;;;;;;;9.39;100.00;101372.88;6220170;23;20084;-78
2022/10/26 02:37:27;;;;;;;7.97;5.63;;;;;;;9.44;100.00;101378.44;6220381;23;20052;-78
2022/10/26 02:39:56;;;;;;;6.40;5.45;;;;;;;9.48;100.00;101365.09;6193984;23;20020;-78
2022/10/26 02:42:25;;;;;;;8.65;5.32;;;;;;;9.50;100.00;101368.81;6220761;23;20096;-79
2022/10/26 02:44:59;;;;;;;6.15;5.55;;;;;;;9.51;100.00;101354.38;6220162;23;20040;-78
2022/10/26 02:47:26;;;;;;;7.07;5.57;;;;;;;9.54;100.00;101348.22;6219538;23;20044;-79
2022/10/26 02:49:53;;;;;;;8.40;5.57;;;;;;;9.59;100.00;101355.69;6220068;23;20033;-78
2022/10/26 02:52:31;;;;;;;7.55;6.30;;;;;;;9.61;100.00;101349.94;6220208;23;20048;-79
2022/10/26 02:55:08;;;;;;;9.70;5.60;;;;;;;9.64;100.00;101362.41;6220066;23;20013;-79
2022/10/26 02:57:40;;;;;;;7.60;5.32;;;;;;;9.64;100.00;101349.84;6220695;23;20055;-79
2022/10/26 03:00:11;;;;;;;12.55;5.80;;;;;;;9.67;100.00;101353.59;6220221;23;20023;-79
2022/10/26 03:02:37;;;;;;;6.45;5.43;;;;;;;9.69;100.00;101349.34;6219534;23;20013;-79
2022/10/26 03:05:25;;;;;;;9.48;5.97;;;;;;;9.72;100.00;101350.44;6220020;23;20088;-78
2022/10/26 03:07:53;;;;;;;8.90;5.20;;;;;;;9.73;100.00;101349.25;6220041;23;20399;-78
2022/10/26 03:10:20;;;;;;;10.63;5.88;;;;;;;9.77;100.00;101346.50;6193280;23;20021;-78
2022/10/26 03:12:46;;;;;;;11.45;6.18;;;;;;;9.77;100.00;101349.91;6220042;23;20116;-78
2022/10/26 03:15:14;;;;;;;11.73;6.32;;;;;;;9.80;100.00;101351.00;6220289;23;20013;-79
2022/10/26 03:17:41;;;;;;;8.90;5.53;;;;;;;9.81;100.00;101344.50;6219711;23;20037;-79
2022/10/26 03:20:08;;;;;;;8.65;5.63;;;;;;;9.82;100.00;101354.00;6220127;23;20049;-78
2022/10/26 03:22:34;;;;;;;9.75;6.65;;;;;;;9.82;100.00;101346.75;6220283;23;20396;-79
2022/10/26 03:25:01;;;;;;;6.78;6.07;;;;;;;9.85;100.00;101343.25;6219967;23;20474;-78
2022/10/26 03:27:28;;;;;;;6.00;5.45;;;;;;;9.88;100.00;101345.09;6220468;23;20407;-78
2022/10/26 03:29:55;;;;;;;11.07;6.20;;;;;;;9.89;100.00;101341.25;6219853;23;20019;-78
2022/10/26 03:32:21;;;;;;;8.75;6.45;;;;;;;9.93;100.00;101339.25;6192732;23;20025;-78
2022/10/26 03:34:47;;;;;;;10.20;6.88;;;;;;;9.95;100.00;101341.50;6219841;23;20097;-79
2022/10/26 03:37:14;;;;;;;7.25;5.85;;;;;;;9.94;100.00;101346.06;6220550;23;20455;-79
2022/10/26 03:39:40;;;;;;;11.77;6.30;;;;;;;9.93;100.00;101339.25;6193707;23;20081;-79
2022/10/26 03:42:07;;;;;;;11.40;6.10;;;;;;;9.94;100.00;101345.31;6220012;23;20143;-79
2022/10/26 03:44:33;;;;;;;11.95;5.78;;;;;;;9.95;100.00;101342.25;6220190;23;20091;-78
2022/10/26 03:46:59;;;;;;;10.35;6.15;;;;;;;9.96;100.00;101341.09;6218723;23;20076;-78
2022/10/26 03:49:26;;;;;;;9.88;6.18;;;;;;;9.97;100.00;101342.56;6220189;23;20096;-79
2022/10/26 03:51:52;;;;;;;9.75;6.22;;;;;;;9.98;100.00;101332.69;6219647;23;20084;-78
2022/10/26 03:54:19;;;;;;;9.70;5.97;;;;;;;9.98;100.00;101335.34;6219997;23;20092;-78
2022/10/26 03:56:45;;;;;;;8.45;6.10;;;;;;;9.97;100.00;101336.50;6220011;23;20094;-79
2022/10/26 03:59:15;;;;;;;6.93;5.65;;;;;;;9.96;100.00;101335.00;6219646;23;20013;-78
2022/10/26 04:01:41;;;;;;;7.90;5.80;;;;;;;9.95;100.00;101330.84;6220144;23;20025;-79
2022/10/26 04:04:08;;;;;;;11.57;5.93;;;;;;;9.93;100.00;101330.53;6193291;23;20050;-78
2022/10/26 04:06:35;;;;;;;7.00;5.50;;;;;;;9.91;100.00;101330.94;6220386;23;20460;-78
2022/10/26 04:09:02;;;;;;;9.02;5.35;;;;;;;9.88;100.00;101337.09;6219767;23;20017;-78
2022/10/26 04:11:29;;;;;;;6.00;5.40;;;;;;;9.86;100.00;101331.47;6220083;23;20426;-78
2022/10/26 04:13:58;;;;;;;7.78;5.20;;;;;;;9.85;100.00;101332.63;6218662;23;20152;-78
2022/10/26 04:16:25;;;;;;;6.70;5.60;;;;;;;9.83;100.00;101337.63;6219722;23;20084;-78
2022/10/26 04:18:58;;;;;;;11.70;6.15;;;;;;;9.80;100.00;101335.03;6219745;23;20013;-78
2022/10/26 04:21:25;;;;;;;10.30;5.40;;;;;;;9.78;100.00;101334.72;6220059;23;20833;-78
2022/10/26 04:23:51;;;;;;;8.23;5.95;;;;;;;9.75;100.00;101333.63;6219407;23;20084;-78
2022/10/26 04:26:17;;;;;;;8.15;5.05;;;;;;;9.75;100.00;101338.22;6220074;23;20043;-78
2022/10/26 04:28:44;;;;;;;9.30;5.60;;;;;;;9.77;100.00;101327.91;6219560;23;20076;-78
2022/10/26 04:31:10;;;;;;;13.60;6.03;;;;;;;9.79;100.00;101336.22;6219661;23;20068;-78
2022/10/26 04:33:37;;;;;;;7.95;5.80;;;;;;;9.82;100.00;101317.50;6219733;23;20104;-78
2022/10/26 04:36:03;;;;;;;10.43;5.88;;;;;;;9.85;100.00;101315.91;6219775;23;20047;-77
2022/10/26 04:38:30;;;;;;;8.63;5.72;;;;;;;9.85;100.00;101327.31;6220194;23;20101;-77
2022/10/26 04:40:56;;;;;;;8.77;5.72;;;;;;;9.87;100.00;101324.22;6219538;23;20023;-77
2022/10/26 04:43:23;;;;;;;7.65;5.53;;;;;;;9.88;100.00;101317.75;6219551;23;20104;-77
2022/10/26 04:45:49;;;;;;;10.77;5.82;;;;;;;9.90;100.00;101318.81;6219277;23;20092;-77
2022/10/26 04:48:16;;;;;;;6.93;5.68;;;;;;;9.92;100.00;101318.41;6220109;23;20013;-77
2022/10/26 04:50:42;;;;;;;8.63;5.60;;;;;;;9.93;100.00;101307.34;6220097;23;20359;-77
2022/10/26 04:53:09;;;;;;;6.15;5.43;;;;;;;9.93;100.00;101306.59;6219613;23;20033;-76
2022/10/26 04:55:35;;;;;;;9.32;5.82;;;;;;;9.94;100.00;101306.19;6220254;23;20028;-76
2022/10/26 04:58:02;;;;;;;8.32;6.10;;;;;;;9.93;100.00;101303.94;6219412;23;20040;-77
2022/10/26 05:00:31;;;;;;;9.10;5.80;;;;;;;9.96;100.00;101303.09;6220171;23;20085;-78
2022/10/26 05:02:59;;;;;;;8.98;5.97;;;;;;;9.98;100.00;101308.75;6193027;23;20530;-78
2022/10/26 05:05:26;;;;;;;9.25;5.93;;;;;;;9.97;100.00;101313.31;6219877;23;20083;-77
2022/10/26 05:07:54;;;;;;;7.45;5.63;;;;;;;9.99;100.00;101310.25;6219619;23;20044;-76
2022/10/26 05:10:22;;;;;;;8.00;5.60;;;;;;;9.98;100.00;101324.69;6219863;23;20017;-77
2022/10/26 05:12:52;;;;;;;17.48;5.85;;;;;;;9.98;100.00;101322.78;6218944;23;20088;-77
2022/10/26 05:15:18;;;;;;;8.77;5.70;;;;;;;9.98;100.00;101325.44;6219829;23;20139;-77
2022/10/26 05:17:46;;;;;;;9.10;5.82;;;;;;;9.96;100.00;101325.13;6219550;23;20088;-77
2022/10/26 05:20:13;;;;;;;8.60;5.70;;;;;;;9.94;100.00;101322.13;6219677;23;20451;-77
2022/10/26 05:22:40;;;;;;;7.63;5.38;;;;;;;9.92;100.00;101326.38;6219856;23;20431;-77
2022/10/26 05:25:07;;;;;;;9.25;6.05;;;;;;;9.92;100.00;101318.41;6219552;23;20186;-77
2022/10/26 05:27:33;;;;;;;6.97;5.32;;;;;;;9.91;100.00;101330.94;6191983;23;20084;-77
2022/10/26 05:30:00;;;;;;;6.70;5.70;;;;;;;9.90;100.00;101320.72;6219248;23;20037;-77
2022/10/26 05:32:26;;;;;;;8.63;5.30;;;;;;;9.88;100.00;101323.06;6219634;23;20017;-77
2022/10/26 05:34:53;;;;;;;8.18;5.80;;;;;;;9.90;100.00;101318.06;6219388;23;20516;-77
2022/10/26 05:37:19;;;;;;;6.60;5.38;;;;;;;9.91;100.00;101330.94;6219383;23;20088;-77
2022/10/26 05:39:45;;;;;;;6.13;5.53;;;;;;;9.94;100.00;101324.78;6219677;23;20092;-78
2022/10/26 05:42:12;;;;;;;11.45;5.57;;;;;;;9.99;100.00;101323.53;6218795;23;20025;-77
2022/10/26 05:44:38;;;;;;;11.05;5.78;;;;;;;10.01;100.00;101315.84;6219541;23;20089;-77
2022/10/26 05:47:05;;;;;;;5.97;5.38;;;;;;;10.05;100.00;101319.16;6218893;23;20106;-77
2022/10/26 05:49:31;;;;;;;10.52;5.70;;;;;;;10.08;100.00;101322.91;6219799;23;20089;-77
2022/10/26 05:51:58;;;;;;;13.88;6.20;;;;;;;10.09;100.00;101324.41;6219217;23;20036;-77
2022/10/26 05:54:24;;;;;;;8.13;6.28;;;;;;;10.13;100.00;101325.78;6219311;23;20025;-77
2022/10/26 05:56:51;;;;;;;12.73;5.65;;;;;;;10.16;100.00;101324.22;6218469;23;20053;-77
2022/10/26 05:59:19;;;;;;;9.70;5.65;;;;;;;10.17;100.00;101329.09;6219545;23;20012;-77
2022/10/26 06:02:07;;;;;;;11.00;6.15;;;;;;;10.19;100.00;101334.00;6219188;23;20092;-77
2022/10/26 06:04:43;;;;;;;7.85;5.82;;;;;;;10.24;100.00;101341.50;6220307;23;20055;-78
2022/10/26 06:07:18;;;;;;;11.52;5.90;;;;;;;10.27;100.00;101340.66;6220277;23;20096;-77
2022/10/26 06:09:46;;;;;;;10.25;5.32;;;;;;;10.29;100.00;101333.75;6219621;23;20037;-77
2022/10/26 06:12:13;;;;;;;9.55;6.00;;;;;;;10.32;100.00;101332.91;6219980;23;20084;-77
2022/10/26 06:14:45;;;;;;;6.25;5.40;;;;;;;10.33;100.00;101334.41;6220198;23;20023;-76
2022/10/26 06:17:39;;;;;;;13.95;6.20;;;;;;;10.35;100.00;101339.31;6220112;23;20023;-77
2022/10/26 06:20:24;;;;;;;9.32;5.78;;;;;;;10.35;100.00;101342.72;6220366;23;20085;-78
2022/10/26 06:22:59;;;;;;;9.35;5.72;;;;;;;10.35;100.00;101341.97;6193340;23;20166;-77
2022/10/26 06:25:44;;;;;;;12.77;5.30;;;;;;;10.35;100.00;101345.38;6219317;23;20099;-77
2022/10/26 06:28:20;;;;;;;10.13;5.57;;;;;;;10.36;100.00;101346.13;6220107;23;20465;-77
2022/10/26 06:30:46;;;;;;;9.70;6.65;;;;;;;10.35;100.00;101341.97;6219882;23;20418;-76
2022/10/26 06:33:13;;;;;;;6.25;5.45;;;;;;;10.34;100.00;101343.13;6219436;23;20788;-76
2022/10/26 06:36:09;;;;;;;8.23;6.22;;;;;;;10.34;100.00;101348.44;6219668;23;20022;-79
2022/10/26 06:38:38;;;;;;;8.82;5.70;;;;;;;10.33;100.00;101337.06;6220783;23;20092;-81
2022/10/26 06:41:05;;;;;;;10.82;5.97;;;;;;;10.34;100.00;101351.88;6221455;23;20439;-79
2022/10/26 06:43:34;;;;;;;7.20;5.28;;;;;;;10.36;100.00;101340.78;6221449;23;20081;-80
2022/10/26 06:46:06;;;;;;;8.18;5.72;;;;;;;10.38;100.00;101343.03;6220894;23;20430;-80
2022/10/26 06:48:46;;;;;;;8.35;5.38;;;;;;;10.38;100.00;101341.13;6221237;23;20013;-79
2022/10/26 06:51:14;;;;;;;10.77;5.40;;;;;;;10.39;100.00;101339.22;6221386;23;20492;-79
2022/10/26 06:53:51;;;;;;;5.45;5.03;;;;;;;10.41;100.00;101347.50;6193987;23;20108;-78
2022/10/26 06:56:18;;;;;;;5.50;5.00;;;;;;;10.42;100.00;101352.38;6221248;23;20430;-77
2022/10/26 06:58:47;;;;;;;8.50;4.90;;;;;;;10.45;100.00;101342.81;6221250;23;20088;-78
2022/10/26 07:01:14;;;;;;;8.07;5.30;;;;;;;10.48;100.00;101347.28;6221154;23;20045;-76
2022/10/26 07:03:41;;;;;;;8.90;5.82;;;;;;;10.51;100.00;101349.09;6221130;23;20024;-78
2022/10/26 07:06:08;;;;;;;7.43;6.07;;;;;;;10.54;100.00;101350.94;6194243;23;20039;-80
2022/10/26 07:08:35;;;;;;;9.73;5.65;;;;;;;10.59;100.00;101355.72;6220497;23;20075;-78
2022/10/26 07:11:01;;;;;;;6.90;5.57;;;;;;;10.63;100.00;101351.06;6221213;23;20056;-77
2022/10/26 07:13:27;;;;;;;7.80;5.38;;;;;;;10.68;100.00;101345.19;6221276;23;20482;-77
2022/10/26 07:15:54;;;;;;;12.80;5.32;;;;;;;10.73;100.00;101342.00;6220756;23;20100;-77
2022/10/26 07:18:20;;;;;;;7.38;5.07;;;;;;;10.78;100.00;101336.16;6220560;23;20506;-77
2022/10/26 07:20:47;;;;;;;7.97;5.10;;;;;;;10.83;100.00;101354.25;6220822;23;20051;-77
2022/10/26 07:23:14;;;;;;;8.38;5.32;;;;;;;10.87;100.00;101354.16;6220121;23;20017;-78
2022/10/26 07:25:41;;;;;;;10.48;5.55;;;;;;;10.93;100.00;101358.50;6220717;23;20021;-77
2022/10/26 07:28:09;;;;;;;8.65;4.93;;;;;;;11.00;100.00;101358.31;6220615;23;20040;-78
2022/10/26 07:30:37;;;;;;;9.52;5.10;;;;;;;11.03;100.00;101356.72;6220678;23;20056;-77
2022/10/26 07:33:07;;;;;;;8.13;4.88;;;;;;;11.05;100.00;101359.69;6220747;23;20045;-76
2022/10/26 07:35:33;;;;;;;10.25;4.93;;;;;;;11.06;100.00;101355.84;6220330;23;20124;-78
2022/10/26 07:38:00;;;;;;;5.88;4.90;;;;;;;11.06;100.00;101360.44;6220124;23;20439;-77
2022/10/26 07:40:27;;;;;;;8.20;5.53;;;;;;;11.04;100.00;101358.19;6220797;23;20049;-78
2022/10/26 07:42:58;;;;;;;10.68;5.10;;;;;;;11.06;100.00;101365.78;6220643;23;20096;-78
2022/10/26 07:45:26;;;;;;;6.13;4.85;;;;;;;11.10;100.00;101385.06;6220288;23;20510;-78
2022/10/26 07:47:53;;;;;;;8.65;5.45;;;;;;;11.22;100.00;101385.03;6220533;23;20088;-78
2022/10/26 07:50:20;;;;;;;8.15;5.20;;;;;;;11.31;100.00;101376.41;6220143;23;20123;-78
2022/10/26 07:52:46;;;;;;;7.28;5.25;;;;;;;11.46;100.00;101380.13;6219947;23;20044;-78
2022/10/26 07:55:13;;;;;;;7.82;5.00;;;;;;;11.59;100.00;101377.44;6220634;23;20024;-78
2022/10/26 07:57:40;;;;;;;10.27;4.88;;;;;;;11.68;100.00;101378.25;6194104;23;20362;-79
2022/10/26 08:00:08;;;;;;;6.28;4.47;;;;;;;11.82;100.00;101378.97;6220716;23;20020;-78
2022/10/26 08:02:35;;;;;;;5.05;4.53;;;;;;;11.93;100.00;101382.78;6220334;23;20119;-78
2022/10/26 08:05:03;;;;;;;9.90;4.78;;;;;;;12.04;100.00;101385.06;6219146;23;20318;-78
2022/10/26 08:07:29;;;;;;;6.93;4.65;;;;;;;12.14;100.00;101381.31;6220168;23;20096;-78
2022/10/26 08:09:55;;;;;;;6.50;4.50;;;;;;;12.27;100.00;101387.34;6193702;23;20019;-77
2022/10/26 08:12:22;;;;;;;6.97;4.32;;;;;;;12.42;99.92;101397.50;6220345;23;20085;-78
2022/10/26 08:14:48;;;;;;;11.43;4.20;;;;;;;12.53;99.04;101400.53;6220168;23;20423;-78
2022/10/26 08:17:15;;;;;;;6.85;3.67;;;;;;;12.66;98.38;101401.22;6220101;23;20407;-78
2022/10/26 08:19:41;;;;;;;5.07;3.83;;;;;;;12.69;97.67;101400.34;6193367;23;20048;-78
2022/10/26 08:22:08;;;;;;;7.15;3.72;;;;;;;12.67;97.71;101402.69;6219846;23;20069;-78
2022/10/26 08:24:35;;;;;;;4.95;3.58;;;;;;;12.78;97.01;101397.72;6193167;23;20032;-78
2022/10/26 08:27:01;;;;;;;5.32;3.78;;;;;;;12.90;97.08;101410.22;6219992;23;20096;-78
2022/10/26 08:29:28;;;;;;;4.70;3.90;;;;;;;13.01;96.29;101410.56;6220178;23;20040;-79
2022/10/26 08:31:55;;;;;;;7.07;3.95;;;;;;;13.16;95.59;101420.75;6220140;23;20052;-78
2022/10/26 08:34:22;;;;;;;5.63;4.05;;;;;;;13.27;95.29;101407.72;6220205;23;20028;-77
2022/10/26 08:36:49;;;;;;;4.88;3.67;;;;;;;13.32;94.35;101420.50;6219665;23;20071;-76
2022/10/26 08:39:15;;;;;;;4.53;3.97;;;;;;;13.40;94.43;101408.34;6220181;23;20072;-77
2022/10/26 08:41:45;;;;;;;6.82;3.88;;;;;;;13.47;94.11;101412.69;6220224;23;20016;-77
2022/10/26 08:44:23;;;;;;;7.00;3.95;;;;;;;13.56;93.96;101423.41;6220320;23;20021;-76
2022/10/26 08:46:54;;;;;;;4.20;3.38;;;;;;;13.63;93.73;101429.19;6219659;23;20396;-77
2022/10/26 08:49:28;;;;;;;5.10;4.45;;;;;;;13.68;93.07;101441.22;6219857;23;20044;-78
2022/10/26 08:52:00;;;;;;;4.22;3.83;;;;;;;13.72;92.47;101443.78;6220148;23;20092;-78
2022/10/26 08:54:43;;;;;;;4.35;3.97;;;;;;;13.73;92.92;101435.31;6220092;23;20469;-80
2022/10/26 08:57:49;;;;;;;5.88;3.92;;;;;;;13.80;92.80;101436.94;6220078;23;20036;-81
2022/10/26 09:00:20;;;;;;;4.18;3.78;;;;;;;13.86;91.94;101440.53;6069417;23;20179;-78
2022/10/26 09:02:53;;;;;;;8.95;4.00;;;;;;;13.93;92.25;101437.56;6068944;23;20502;-77
2022/10/26 09:05:33;;;;;;;4.55;3.92;;;;;;;13.98;92.15;101431.63;6068691;23;20755;-78
2022/10/26 09:08:16;;;;;;;5.15;4.13;;;;;;;14.06;91.91;101426.69;6045665;23;20023;-78
2022/10/26 09:10:59;;;;;;;6.70;4.07;;;;;;;14.14;92.01;101425.94;6069051;23;20027;-77
2022/10/26 09:14:10;;;;;;;4.47;4.07;;;;;;;14.35;92.00;101427.72;6069399;23;20432;-79
2022/10/26 09:17:02;;;;;;;14.32;4.22;;;;;;;14.50;90.59;101427.88;6044841;23;20099;-79
2022/10/26 09:19:58;;;;;;;4.53;4.10;;;;;;;14.60;89.82;101429.34;6068616;23;20050;-80
2022/10/26 09:22:25;;;;;;;8.00;4.20;;;;;;;14.62;89.63;101423.53;6068938;23;20023;-79
2022/10/26 09:24:54;;;;;;;4.38;3.72;;;;;;;14.66;89.75;101416.81;6069111;23;20094;-82
2022/10/26 09:27:27;;;;;;;5.78;3.90;;;;;;;14.74;89.96;101411.16;6068925;23;20053;-82
2022/10/26 09:29:57;;;;;;;6.32;5.03;;;;;;;14.81;89.26;101414.22;6069122;23;20042;-81
2022/10/26 09:32:30;;;;;;;4.70;3.80;;;;;;;14.94;89.59;101427.44;6069062;23;20106;-77
2022/10/26 09:35:02;;;;;;;4.63;4.10;;;;;;;15.00;89.37;101431.75;6186670;23;20056;-77
2022/10/26 09:37:31;;;;;;;;;;;;;;;15.17;90.50;101434.06;6220459;23;20017;-77
2022/10/26 09:40:18;;;;;;;12.07;6.57;;;;;;;15.21;87.89;101437.31;6219960;23;19927;-77
2022/10/26 09:42:53;;;;;;;9.18;4.20;;;;;;;15.25;87.33;101445.94;6219743;23;20031;-77
2022/10/26 09:45:27;;;;;;;4.28;3.88;;;;;;;15.32;87.62;101453.66;6219480;23;20451;-79
2022/10/26 09:48:00;;;;;;;4.13;3.47;;;;;;;15.39;87.88;101458.69;6187529;23;20017;-75
2022/10/26 09:50:37;;;;;;;4.00;3.45;;;;;;;15.45;87.25;101461.50;6188051;23;20018;-77
2022/10/26 09:53:04;;;;;;;4.47;3.55;;;;;;;15.49;87.29;101467.44;6189377;23;20188;-77
2022/10/26 09:55:33;;;;;;;6.85;3.50;;;;;;;15.51;87.66;101467.72;6188060;23;20145;-77
2022/10/26 09:58:05;;;;;;;8.45;3.55;;;;;;;15.52;87.19;101464.59;6189723;23;20072;-77
2022/10/26 10:00:33;;;;;;;10.05;3.47;;;;;;;15.57;87.46;101476.66;6189464;23;20114;-77
2022/10/26 10:03:00;;;;;;;4.45;3.45;;;;;;;15.65;86.75;101488.53;6188935;23;20018;-77
2022/10/26 10:05:29;;;;;;;5.32;3.08;;;;;;;15.74;86.03;101483.13;6189403;23;20439;-77
2022/10/26 10:08:18;;;;;;;4.93;3.05;;;;;;;15.82;86.72;101473.53;6189539;23;20076;-77
2022/10/26 10:11:09;;;;;;;6.85;3.63;;;;;;;15.91;86.72;101491.53;6189317;23;20041;-77
2022/10/26 10:13:39;;;;;;;3.88;3.10;;;;;;;15.98;86.90;101496.53;6177399;23;20109;-77
2022/10/26 10:16:20;;;;;;;2.95;2.75;;;;;;;16.07;86.85;101491.09;6190573;23;20471;-77
2022/10/26 10:18:54;;;;;;;;;;;;;;;16.19;86.94;101500.84;6191153;23;20104;-77
2022/10/26 10:21:52;;;;;;;5.80;2.95;;;;;;;16.27;86.43;101501.25;6190686;23;19920;-76
2022/10/26 10:24:28;;;;;;;11.93;3.35;;;;;;;16.37;86.26;101501.91;6190706;23;20025;-77
2022/10/26 10:27:11;;;;;;;5.68;2.90;;;;;;;16.45;86.57;101495.69;6190705;23;20017;-77
2022/10/26 10:29:43;;;;;;;5.75;3.10;;;;;;;16.53;85.84;101509.53;6190758;23;20092;-77
2022/10/26 10:32:26;;;;;;;8.30;3.00;;;;;;;16.60;85.86;101519.91;6190289;23;20018;-77
2022/10/26 10:34:57;;;;;;;4.60;2.88;;;;;;;16.66;84.98;101516.16;6190510;23;20105;-76
2022/10/26 10:37:40;;;;;;;6.60;3.22;;;;;;;16.75;84.95;101518.00;6190723;23;20017;-77
2022/10/26 10:40:16;;;;;;;4.45;3.10;;;;;;;16.81;84.63;101516.13;6190851;23;20052;-79
2022/10/26 10:42:46;;;;;;;6.50;2.90;;;;;;;16.84;85.36;101528.66;6189778;23;20045;-78
2022/10/26 10:45:20;;;;;;;4.93;2.97;;;;;;;16.87;84.96;101533.09;6189842;23;20017;-78
2022/10/26 10:48:14;;;;;;;4.47;2.85;;;;;;;16.96;84.10;101537.66;6218487;23;20418;-82
2022/10/26 10:50:58;;;;;;;5.40;2.70;;;;;;;17.04;84.35;101536.09;6220787;23;20097;-78
2022/10/26 10:53:58;;;;;;;4.18;3.05;;;;;;;17.12;84.23;101552.59;6220769;23;20076;-79
2022/10/26 10:56:41;;;;;;;5.72;3.05;;;;;;;17.18;84.15;101562.25;6221178;23;20013;-78
2022/10/26 10:59:37;;;;;;;5.38;3.00;;;;;;;17.25;84.22;101561.84;6220718;23;20041;-79
2022/10/26 11:02:16;;;;;;;5.93;3.65;;;;;;;17.28;84.04;101560.16;6220613;23;20040;-78
2022/10/26 11:05:03;;;;;;;7.85;2.90;;;;;;;17.29;83.88;101567.78;6220618;23;20020;-79
2022/10/26 11:07:35;;;;;;;4.28;2.80;;;;;;;17.33;83.50;101570.28;6220867;23;20021;-80
2022/10/26 11:10:03;;;;;;;12.02;3.72;;;;;;;17.30;83.56;101571.22;6220857;23;20100;-79
2022/10/26 11:12:40;;;;;;;6.13;3.45;;;;;;;17.28;83.43;101576.31;6221130;23;20063;-84
2022/10/26 11:15:15;;;;;;;5.65;3.80;;;;;;;17.28;83.70;101584.38;6193611;23;20096;-85
2022/10/26 11:17:58;;;;;;;4.55;3.22;;;;;;;17.30;83.54;101593.47;6221124;23;20021;-81
2022/10/26 11:20:28;;;;;;;5.93;3.55;;;;;;;17.30;83.94;101595.44;6221136;23;20451;-78
2022/10/26 11:22:54;;;;;;;4.90;3.60;;;;;;;17.26;83.76;101594.88;6220573;23;20104;-85
2022/10/26 11:25:36;;;;;;;9.13;4.15;;;;;;;17.25;84.16;101593.38;6220675;23;20023;-86
2022/10/26 11:28:17;;;;;;;5.57;3.45;;;;;;;17.21;84.44;101587.44;6222243;23;20068;-91
2022/10/26 11:30:49;;;;;;;5.38;3.33;;;;;;;17.16;84.10;101594.25;6221217;23;20075;-91
2022/10/26 11:33:30;;;;;;;6.50;3.88;;;;;;;17.14;84.37;101604.00;6227984;23;20000;-90
2022/10/26 11:36:02;;;;;;;8.75;3.40;;;;;;;17.07;84.11;101596.28;6227948;23;20061;-90
2022/10/26 11:38:32;;;;;;;;;;;;;;;17.06;85.41;101603.63;6224032;23;20084;-88
2022/10/26 11:41:24;;;;;;;6.60;3.47;;;;;;;17.03;84.80;101609.91;6221092;23;19920;-85
2022/10/26 11:44:15;;;;;;;5.95;3.25;;;;;;;16.99;85.03;101620.84;6220173;23;20036;-85
2022/10/26 11:46:46;;;;;;;;;;;;;;;16.96;86.11;101612.97;6220332;23;20087;-84